Terminal Aerodrome Forecast
Issued by NWS Wilmington, OH

Home | Current Version | Previous Version | Text Only | Print | Product List | Glossary On
Versions: 1 2 3 4 5 6 7 8 9 10 11 12 13 14 15 16
975
FTUS41 KILN 141805 AAA
TAFILN
TAF AMD
KILN 141805Z 1418/1518 14008KT P6SM OVC050
     FM142000 13010KT 4SM -SN SCT015 OVC035
     FM142200 12010KT 3SM -SN OVC015
      TEMPO 1422/1501 1SM -SN
     FM150600 16010KT 4SM -FZDZ OVC008
     FM151000 17008KT 2SM -FZDZ OVC004
     FM151500 17008KT 5SM BR VCSH OVC004=

USA.gov is the U.S. government's official web portal to all federal, state and local government web resources and services.